RJOP(METAR)
08/23 01:00
METAR RJOP 221600Z 28007KT 9999 FEW030 27/27 Q1014 RMK 1CU030 A2997=
戻る
トップページへ戻る
IMOC Co,.Ltd.